Time;durP1;ratioP1;P1;durP2;ratioP2;P2;SDS_P1;SDS_P2;PMS_P1;PMS_P2;Temp;Humidity;BMP_temperature;BMP_pressure;BME280_temperature;BME280_humidity;BME280_pressure;Samples;Min_cycle;Max_cycle;Signal;HPM_P1;HPM_P2
2022/09/26 00:00:43;;;;;;;3.00;2.00;;;;;;;13.00;63.22;100626.22;4876706;28;97140;-50
2022/09/26 00:03:10;;;;;;;3.27;2.17;;;;;;;13.00;63.26;100626.22;4873404;28;96887;-51
2022/09/26 00:05:37;;;;;;;5.43;2.63;;;;;;;13.03;63.35;100618.94;4858246;28;97342;-50
2022/09/26 00:08:04;;;;;;;9.27;2.37;;;;;;;13.05;63.58;100631.03;4872764;28;97551;-51
2022/09/26 00:10:30;;;;;;;3.10;2.30;;;;;;;13.05;63.29;100614.44;4872811;28;96911;-50
2022/09/26 00:12:56;;;;;;;3.37;2.63;;;;;;;13.05;63.35;100600.63;4854281;28;97006;-50
2022/09/26 00:15:22;;;;;;;22.33;4.60;;;;;;;13.05;63.30;100600.63;4867381;28;99305;-49
2022/09/26 00:17:47;;;;;;;12.97;5.20;;;;;;;13.05;63.29;100597.88;4860594;28;97105;-50
2022/09/26 00:20:13;;;;;;;11.47;5.20;;;;;;;13.06;63.35;100593.84;4863822;28;97486;-50
2022/09/26 00:22:38;;;;;;;11.00;5.93;;;;;;;13.06;63.24;100590.34;4876351;28;96995;-51
2022/09/26 00:25:04;;;;;;;9.47;5.73;;;;;;;13.04;63.34;100584.56;4857047;28;97403;-51
2022/09/26 00:27:29;;;;;;;10.83;4.90;;;;;;;13.02;63.33;100584.31;4871104;28;97620;-51
2022/09/26 00:29:55;;;;;;;10.57;5.77;;;;;;;13.01;63.26;100580.03;4864973;28;96827;-50
2022/09/26 00:32:20;;;;;;;9.70;5.50;;;;;;;13.02;63.33;100579.53;4860449;28;101750;-51
2022/09/26 00:34:45;;;;;;;6.20;4.43;;;;;;;13.01;63.37;100572.53;4872407;28;98834;-51
2022/09/26 00:37:11;;;;;;;7.17;4.30;;;;;;;13.01;63.39;100566.25;4867335;28;98016;-51
2022/09/26 00:39:36;;;;;;;8.47;4.93;;;;;;;12.99;63.41;100564.00;4853588;28;97362;-50
2022/09/26 00:42:02;;;;;;;8.40;3.90;;;;;;;13.00;63.30;100556.44;4870890;28;97200;-51
2022/09/26 00:44:44;;;;;;;8.23;3.93;;;;;;;13.00;63.34;100562.72;4874894;28;96974;-51
2022/09/26 00:47:19;;;;;;;4.37;3.23;;;;;;;12.98;63.62;100559.72;4874513;28;101473;-51
2022/09/26 00:49:46;;;;;;;5.70;3.20;;;;;;;12.97;63.32;100551.94;4857704;28;97278;-50
2022/09/26 00:52:20;;;;;;;3.50;2.70;;;;;;;12.96;63.40;100551.19;4867089;28;97222;-53
2022/09/26 00:54:49;;;;;;;4.33;2.60;;;;;;;12.96;63.36;100536.63;4865547;28;97035;-54
2022/09/26 00:57:30;;;;;;;5.40;3.60;;;;;;;12.91;63.45;100532.66;4869133;28;102023;-51
2022/09/26 01:00:03;;;;;;;5.00;3.57;;;;;;;12.93;63.52;100532.88;4863511;28;98890;-50
2022/09/26 01:02:28;;;;;;;5.40;3.30;;;;;;;12.93;63.44;100532.88;4866387;28;98830;-50
2022/09/26 01:04:56;;;;;;;4.10;3.13;;;;;;;12.92;63.61;100528.63;4867361;28;97302;-51
2022/09/26 01:07:24;;;;;;;5.20;3.13;;;;;;;12.92;63.38;100517.59;4856858;28;96963;-51
2022/09/26 01:09:51;;;;;;;2.80;2.40;;;;;;;12.92;63.47;100522.34;4868853;28;97181;-51
2022/09/26 01:12:17;;;;;;;4.03;2.63;;;;;;;12.90;63.40;100511.06;4864089;28;97011;-51
2022/09/26 01:14:45;;;;;;;5.50;2.20;;;;;;;12.86;63.32;100505.84;4859437;28;101022;-50
2022/09/26 01:17:10;;;;;;;3.03;2.13;;;;;;;12.83;63.46;100506.84;4869439;28;97806;-51
2022/09/26 01:19:48;;;;;;;6.90;1.87;;;;;;;12.82;63.40;100496.31;4860843;28;96988;-51
2022/09/26 01:22:32;;;;;;;2.00;1.60;;;;;;;12.74;63.51;100496.84;4869991;28;97289;-51
2022/09/26 01:25:03;;;;;;;6.30;1.87;;;;;;;12.70;63.48;100499.16;4860773;28;97092;-51
2022/09/26 01:27:42;;;;;;;7.63;1.50;;;;;;;12.68;63.50;100495.41;4869545;28;97616;-51
2022/09/26 01:30:21;;;;;;;1.60;1.50;;;;;;;12.67;63.54;100499.41;4871359;28;98438;-51
2022/09/26 01:33:14;;;;;;;1.80;1.40;;;;;;;12.63;63.65;100487.88;4868227;28;98702;-50
2022/09/26 01:36:13;;;;;;;1.63;1.53;;;;;;;12.59;63.71;100484.66;4862525;28;101824;-51
2022/09/26 01:38:59;;;;;;;1.43;1.10;;;;;;;12.54;63.69;100501.97;4859780;28;101909;-51
2022/09/26 01:41:27;;;;;;;1.47;1.17;;;;;;;12.50;63.32;100482.19;4878386;28;97079;-51
2022/09/26 01:44:05;;;;;;;1.40;1.10;;;;;;;12.49;63.36;100484.19;4877043;28;96781;-51
2022/09/26 01:46:43;;;;;;;2.97;1.70;;;;;;;12.45;63.39;100488.50;4862148;28;97045;-51
2022/09/26 01:49:08;;;;;;;3.13;1.03;;;;;;;12.42;63.26;100472.94;4873660;28;102752;-51
2022/09/26 01:51:49;;;;;;;1.77;1.67;;;;;;;12.42;63.22;100478.47;4862425;28;97154;-50
2022/09/26 01:54:25;;;;;;;1.63;1.53;;;;;;;12.39;63.31;100473.97;4869292;28;98083;-51
2022/09/26 01:56:57;;;;;;;3.57;2.60;;;;;;;12.35;63.15;100473.47;4870962;28;101670;-51
2022/09/26 01:59:33;;;;;;;1.57;1.47;;;;;;;12.33;63.27;100464.97;4874221;28;100414;-51
2022/09/26 02:02:09;;;;;;;2.57;1.90;;;;;;;12.29;63.30;100467.25;4866943;28;97212;-49
2022/09/26 02:04:41;;;;;;;5.50;2.80;;;;;;;12.27;63.55;100450.47;4873837;28;97096;-50
2022/09/26 02:07:27;;;;;;;6.30;3.17;;;;;;;12.26;63.69;100448.94;4868390;28;98681;-51
2022/09/26 02:10:15;;;;;;;3.23;2.57;;;;;;;12.26;63.80;100446.94;4866335;28;100356;-51
2022/09/26 02:12:45;;;;;;;3.00;2.23;;;;;;;12.27;63.37;100450.47;4874751;28;97018;-51
2022/09/26 02:15:16;;;;;;;2.13;1.93;;;;;;;12.25;63.58;100442.69;4861884;28;96972;-51
2022/09/26 02:17:47;;;;;;;1.63;1.50;;;;;;;12.24;63.61;100441.19;4876737;28;96856;-51
2022/09/26 02:20:45;;;;;;;2.70;1.87;;;;;;;12.21;63.97;100428.41;4863770;28;97616;-49
2022/09/26 02:23:10;;;;;;;2.43;1.43;;;;;;;12.22;63.71;100426.41;4876161;28;97060;-51
2022/09/26 02:25:36;;;;;;;2.23;2.07;;;;;;;12.24;63.61;100427.41;4862182;28;96938;-51
2022/09/26 02:28:02;;;;;;;3.00;2.00;;;;;;;12.26;63.66;100418.59;4863297;28;97344;-51
2022/09/26 02:30:28;;;;;;;2.83;2.00;;;;;;;12.24;63.78;100415.59;4858094;28;97467;-51
2022/09/26 02:32:53;;;;;;;3.47;1.70;;;;;;;12.27;63.63;100414.59;4865296;28;97183;-51
2022/09/26 02:38:04;;;;;;;2.10;1.17;;;;;;;12.25;63.61;100408.84;4875332;28;102382;-51
2022/09/26 02:40:58;;;;;;;1.87;1.47;;;;;;;12.24;64.07;100402.56;4873168;28;100292;-49
2022/09/26 02:43:53;;;;;;;1.83;1.43;;;;;;;12.23;64.03;100394.81;4861765;28;99581;-50
2022/09/26 02:46:37;;;;;;;1.37;1.27;;;;;;;12.24;63.86;100396.28;4863456;28;100518;-52
2022/09/26 02:49:40;;;;;;;2.50;2.00;;;;;;;12.23;64.17;100390.03;4855207;28;99808;-50
2022/09/26 02:52:46;;;;;;;1.63;1.50;;;;;;;12.22;64.37;100379.50;4851911;28;100205;-51
2022/09/26 02:55:36;;;;;;;1.37;1.27;;;;;;;12.22;64.20;100383.03;4864750;28;96992;-52
2022/09/26 02:58:43;;;;;;;3.77;1.43;;;;;;;12.22;64.20;100374.00;4874573;28;96944;-53
2022/09/26 03:01:33;;;;;;;6.13;1.57;;;;;;;12.23;64.13;100367.22;4874940;28;100662;-50
2022/09/26 03:04:05;;;;;;;2.47;1.30;;;;;;;12.23;63.93;100375.50;4877795;28;100104;-51
2022/09/26 03:06:36;;;;;;;1.50;1.40;;;;;;;12.22;64.04;100371.25;4854156;28;97081;-51
2022/09/26 03:09:03;;;;;;;1.03;1.03;;;;;;;12.22;64.02;100372.00;4874358;28;97503;-50
2022/09/26 03:11:30;;;;;;;1.43;1.33;;;;;;;12.26;64.14;100366.94;4867534;28;98850;-49
2022/09/26 03:13:57;;;;;;;2.10;1.80;;;;;;;12.31;64.17;100365.44;4857411;28;98532;-54
2022/09/26 03:16:27;;;;;;;3.13;1.47;;;;;;;12.33;64.05;100360.16;4871812;28;97401;-53
2022/09/26 03:19:13;;;;;;;4.77;2.00;;;;;;;12.35;64.52;100352.09;4858832;28;96935;-52
2022/09/26 03:21:39;;;;;;;2.70;1.57;;;;;;;12.36;64.00;100345.34;4872142;28;101287;-52
2022/09/26 03:24:04;;;;;;;4.63;1.93;;;;;;;12.36;64.29;100340.56;4854526;28;97466;-50
2022/09/26 03:26:31;;;;;;;2.00;1.80;;;;;;;12.37;64.05;100341.31;4868045;28;97434;-49
2022/09/26 03:29:06;;;;;;;1.43;1.33;;;;;;;12.39;64.39;100336.03;4884696;28;98787;-51
2022/09/26 03:31:31;;;;;;;1.53;1.43;;;;;;;12.37;64.28;100333.78;4869117;28;103410;-51
2022/09/26 03:33:57;;;;;;;2.23;1.80;;;;;;;12.38;64.32;100329.78;4880805;28;108828;-51
2022/09/26 03:36:22;;;;;;;2.40;1.30;;;;;;;12.41;64.46;100330.75;4860897;28;96818;-50
2022/09/26 03:38:47;;;;;;;1.57;1.20;;;;;;;12.44;64.55;100324.22;4869331;28;96844;-50
2022/09/26 03:41:13;;;;;;;1.00;0.93;;;;;;;12.46;64.31;100327.19;4879501;28;97003;-49
2022/09/26 03:43:42;;;;;;;5.10;0.97;;;;;;;12.47;64.52;100315.63;4853787;28;97395;-49
2022/09/26 03:46:10;;;;;;;1.67;0.93;;;;;;;12.49;64.62;100317.91;4870906;28;97547;-49
2022/09/26 03:48:36;;;;;;;2.73;1.17;;;;;;;12.50;64.48;100313.88;4849058;28;97329;-51
2022/09/26 03:51:04;;;;;;;5.00;1.10;;;;;;;12.51;64.45;100307.09;4864726;28;97641;-49
2022/09/26 03:53:34;;;;;;;3.87;0.93;;;;;;;12.51;64.69;100307.84;4872470;28;101167;-50
2022/09/26 03:56:25;;;;;;;4.97;1.47;;;;;;;12.50;65.16;100302.84;4858445;28;97294;-49
2022/09/26 03:58:52;;;;;;;1.00;1.00;;;;;;;12.52;64.29;100297.53;4855479;28;96995;-51
2022/09/26 04:01:20;;;;;;;1.43;0.80;;;;;;;12.49;64.54;100285.53;4867256;28;98670;-51
2022/09/26 04:03:47;;;;;;;1.70;1.00;;;;;;;12.51;64.68;100290.53;4867946;28;104005;-50
2022/09/26 04:06:18;;;;;;;2.43;1.30;;;;;;;12.50;64.49;100289.03;4857539;28;97205;-51
2022/09/26 04:08:45;;;;;;;0.90;0.90;;;;;;;12.48;64.53;100286.81;4872392;28;97493;-51
2022/09/26 04:11:13;;;;;;;2.77;1.07;;;;;;;12.48;64.41;100280.53;4862334;28;97344;-51
2022/09/26 04:13:39;;;;;;;2.00;1.00;;;;;;;12.47;64.44;100279.03;4875757;28;97150;-51
2022/09/26 04:16:06;;;;;;;1.60;1.50;;;;;;;12.47;64.70;100270.78;4865576;28;97396;-50
2022/09/26 04:18:32;;;;;;;1.13;0.90;;;;;;;12.47;64.66;100270.78;4866475;28;97110;-51
2022/09/26 04:21:06;;;;;;;2.07;1.50;;;;;;;12.49;64.86;100268.25;4877546;28;97533;-50
2022/09/26 04:23:34;;;;;;;3.43;0.97;;;;;;;12.54;64.75;100264.66;4857691;28;97200;-51
2022/09/26 04:26:11;;;;;;;1.30;1.03;;;;;;;12.55;64.85;100266.19;4872456;28;96693;-49
2022/09/26 04:28:38;;;;;;;1.80;1.40;;;;;;;12.52;64.69;100256.91;4865646;28;97204;-50
2022/09/26 04:31:06;;;;;;;2.47;1.10;;;;;;;12.57;64.63;100250.59;4866014;28;101719;-51
2022/09/26 04:33:32;;;;;;;2.87;0.97;;;;;;;12.58;64.75;100254.13;4866544;28;97251;-50
2022/09/26 04:36:03;;;;;;;1.53;1.00;;;;;;;12.58;64.61;100246.56;4861896;28;97300;-51
2022/09/26 04:38:32;;;;;;;3.13;1.03;;;;;;;12.58;64.74;100249.34;4871123;28;97299;-50
2022/09/26 04:41:05;;;;;;;3.57;0.80;;;;;;;12.58;64.68;100243.09;4864450;28;97247;-54
2022/09/26 04:43:31;;;;;;;3.47;1.00;;;;;;;12.57;64.82;100236.06;4866961;28;97297;-53
2022/09/26 04:45:56;;;;;;;1.17;1.17;;;;;;;12.59;64.75;100231.53;4881161;28;98603;-50
2022/09/26 04:48:22;;;;;;;4.33;1.23;;;;;;;12.62;64.74;100235.25;4849910;28;98437;-50
2022/09/26 04:50:47;;;;;;;2.30;1.10;;;;;;;12.64;64.87;100229.97;4868774;28;96962;-51
2022/09/26 04:53:12;;;;;;;2.13;1.60;;;;;;;12.66;64.89;100227.44;4866973;28;106115;-50
2022/09/26 04:55:43;;;;;;;2.87;0.93;;;;;;;12.68;64.75;100224.91;4857032;28;115255;-51
2022/09/26 04:58:08;;;;;;;1.10;1.00;;;;;;;12.70;64.83;100219.63;4866233;28;97487;-51
2022/09/26 05:00:34;;;;;;;1.30;1.20;;;;;;;12.71;64.89;100216.34;4851817;28;100949;-51
2022/09/26 05:02:59;;;;;;;0.97;0.97;;;;;;;12.71;64.85;100210.09;4875644;28;98387;-51
2022/09/26 05:05:25;;;;;;;2.60;1.23;;;;;;;12.72;64.61;100204.03;4867518;28;96951;-51
2022/09/26 05:07:51;;;;;;;1.93;1.50;;;;;;;12.73;64.90;100199.28;4855417;28;97934;-50
2022/09/26 05:10:16;;;;;;;2.30;1.20;;;;;;;12.76;64.80;100195.47;4867796;28;97140;-50
2022/09/26 05:12:42;;;;;;;1.63;1.37;;;;;;;12.79;64.86;100197.19;4873085;28;97684;-50
2022/09/26 05:15:08;;;;;;;3.30;1.97;;;;;;;12.82;64.81;100191.38;4851953;28;101670;-48
2022/09/26 05:17:37;;;;;;;3.37;1.70;;;;;;;12.87;64.85;100187.06;4865218;28;97329;-50
2022/09/26 05:20:07;;;;;;;1.80;1.70;;;;;;;12.88;64.79;100180.28;4858132;28;98317;-51
2022/09/26 05:22:33;;;;;;;2.47;1.60;;;;;;;12.90;64.60;100180.50;4875042;28;97336;-51
2022/09/26 05:27:43;;;;;;;2.30;2.10;;;;;;;12.92;64.71;100186.25;4871178;28;97397;-53
2022/09/26 05:30:11;;;;;;;8.97;3.20;;;;;;;12.94;64.63;100169.91;4868413;28;96857;-49
2022/09/26 05:32:36;;;;;;;2.70;2.30;;;;;;;12.96;64.78;100177.69;4850379;28;97529;-50
2022/09/26 05:35:04;;;;;;;2.60;2.40;;;;;;;13.00;64.63;100169.84;4865728;28;99893;-51
2022/09/26 05:37:30;;;;;;;2.57;2.37;;;;;;;13.05;64.80;100172.56;4867730;28;96842;-50
2022/09/26 05:42:39;;;;;;;3.93;2.40;;;;;;;13.08;64.70;100168.78;4878150;28;100303;-54
2022/09/26 05:45:05;;;;;;;4.50;2.33;;;;;;;13.10;64.67;100160.72;4872159;28;96928;-51
2022/09/26 05:47:35;;;;;;;2.80;2.37;;;;;;;13.12;64.57;100169.22;4871831;28;96772;-50
2022/09/26 05:50:08;;;;;;;3.07;2.77;;;;;;;13.16;64.58;100166.16;4854136;28;97419;-50
2022/09/26 05:52:37;;;;;;;3.87;2.60;;;;;;;13.20;64.57;100161.09;4880849;28;97409;-50
2022/09/26 05:55:03;;;;;;;4.10;2.20;;;;;;;13.23;64.71;100163.56;4861949;28;97097;-50
2022/09/26 05:57:29;;;;;;;19.93;2.80;;;;;;;13.26;64.61;100159.75;4875855;28;96903;-50
2022/09/26 05:59:54;;;;;;;3.80;2.60;;;;;;;13.29;64.63;100158.72;4865610;28;109721;-51
2022/09/26 06:02:19;;;;;;;2.77;2.53;;;;;;;13.33;64.60;100156.41;4860414;28;114142;-50
2022/09/26 06:04:45;;;;;;;3.90;2.63;;;;;;;13.38;64.58;100157.59;4871666;28;97040;-50
2022/09/26 06:07:11;;;;;;;3.10;2.07;;;;;;;13.42;64.38;100153.25;4875132;28;97242;-50
2022/09/26 06:09:37;;;;;;;3.07;2.27;;;;;;;13.45;64.69;100157.72;4853781;28;97375;-50
2022/09/26 06:12:02;;;;;;;4.90;3.07;;;;;;;13.49;64.58;100151.91;4871669;28;96915;-50
2022/09/26 06:14:28;;;;;;;2.93;2.70;;;;;;;13.50;64.43;100154.13;4873124;28;96802;-51
2022/09/26 06:16:53;;;;;;;6.57;2.50;;;;;;;13.54;64.46;100156.63;4858279;28;97822;-50
2022/09/26 06:19:19;;;;;;;3.00;2.33;;;;;;;13.58;64.43;100148.00;4878414;28;97333;-50
2022/09/26 06:21:44;;;;;;;4.50;3.20;;;;;;;13.62;64.35;100151.22;4851211;28;102146;-51
2022/09/26 06:24:10;;;;;;;4.73;2.57;;;;;;;13.67;64.44;100153.91;4870767;28;96819;-50
2022/09/26 06:26:36;;;;;;;5.20;2.40;;;;;;;13.71;64.36;100153.59;4872807;28;96997;-50
2022/09/26 06:29:02;;;;;;;15.90;2.00;;;;;;;13.74;64.56;100155.31;4854018;28;96921;-50
2022/09/26 06:31:28;;;;;;;5.33;2.13;;;;;;;13.78;64.42;100139.88;4870710;28;97279;-51
2022/09/26 06:33:54;;;;;;;3.23;2.57;;;;;;;13.84;64.35;100137.06;4873529;28;96993;-50
2022/09/26 06:36:23;;;;;;;2.60;2.27;;;;;;;13.87;64.24;100136.00;4852650;28;97227;-50
2022/09/26 06:38:49;;;;;;;6.37;2.57;;;;;;;13.89;64.28;100136.22;4869473;28;97632;-51
2022/09/26 06:41:15;;;;;;;3.87;2.47;;;;;;;13.91;64.32;100126.09;4865271;28;96726;-51
2022/09/26 06:43:41;;;;;;;2.50;2.37;;;;;;;13.94;64.28;100127.06;4869353;28;97989;-50
2022/09/26 06:46:08;;;;;;;2.00;1.57;;;;;;;13.96;64.20;100122.50;4868496;28;97477;-49
2022/09/26 06:48:34;;;;;;;4.23;2.70;;;;;;;14.01;64.25;100118.16;4860148;28;97423;-50
2022/09/26 06:51:00;;;;;;;4.40;2.37;;;;;;;14.07;64.28;100104.97;4870856;28;97222;-51
2022/09/26 06:53:26;;;;;;;2.33;2.13;;;;;;;14.10;64.24;100104.69;4865188;28;97324;-50
2022/09/26 06:55:51;;;;;;;3.17;2.20;;;;;;;14.17;64.33;100109.59;4855722;28;97432;-49
2022/09/26 06:58:17;;;;;;;2.60;2.40;;;;;;;14.24;64.16;100106.16;4866940;28;97631;-51
2022/09/26 07:00:43;;;;;;;8.87;2.33;;;;;;;14.28;64.03;100105.88;4871202;28;96977;-50
2022/09/26 07:03:08;;;;;;;2.90;2.30;;;;;;;14.34;64.02;100100.25;4859069;28;98235;-50
2022/09/26 07:05:34;;;;;;;9.23;2.43;;;;;;;14.41;64.07;100094.84;4869397;28;96875;-50
2022/09/26 07:08:00;;;;;;;3.00;2.50;;;;;;;14.45;64.08;100086.22;4866205;28;97144;-52
2022/09/26 07:10:29;;;;;;;6.43;2.03;;;;;;;14.48;63.99;100094.19;4872607;28;98448;-51
2022/09/26 07:13:01;;;;;;;2.03;1.77;;;;;;;14.53;63.89;100078.75;4869315;28;97136;-49
2022/09/26 07:15:29;;;;;;;3.37;2.03;;;;;;;14.56;63.93;100086.75;4856013;28;97061;-51
2022/09/26 07:18:00;;;;;;;3.30;1.67;;;;;;;14.58;63.92;100075.88;4870109;28;96793;-50
2022/09/26 07:20:27;;;;;;;3.43;1.87;;;;;;;14.64;63.80;100079.28;4856229;28;97667;-51
2022/09/26 07:22:53;;;;;;;3.47;1.63;;;;;;;14.65;63.95;100074.50;4861432;28;97082;-51
2022/09/26 07:25:18;;;;;;;3.73;2.30;;;;;;;14.67;63.88;100071.94;4872369;28;96894;-50
2022/09/26 07:27:48;;;;;;;1.80;1.70;;;;;;;14.70;63.82;100071.59;4853242;28;115969;-51
2022/09/26 07:30:13;;;;;;;2.47;2.10;;;;;;;14.71;63.82;100064.78;4867179;28;97333;-51
2022/09/26 07:32:43;;;;;;;2.07;1.87;;;;;;;14.73;63.64;100065.00;4869257;28;96766;-53
2022/09/26 07:35:08;;;;;;;2.33;1.73;;;;;;;14.75;63.58;100067.97;4871998;28;97711;-51
2022/09/26 07:37:33;;;;;;;3.10;2.00;;;;;;;14.79;63.62;100062.84;4869667;28;97178;-51
2022/09/26 07:39:59;;;;;;;4.83;2.23;;;;;;;14.85;63.57;100071.78;4864093;28;97132;-50
2022/09/26 07:42:24;;;;;;;8.43;2.40;;;;;;;14.88;63.39;100065.19;4868235;28;96824;-50
2022/09/26 07:44:50;;;;;;;3.43;1.60;;;;;;;14.95;63.47;100058.22;4869367;28;112287;-50
2022/09/26 07:50:15;;;;;;;1.80;1.70;;;;;;;15.11;63.23;100053.63;4872023;28;100427;-51
2022/09/26 07:52:45;;;;;;;8.50;2.07;;;;;;;15.20;63.20;100051.13;4875423;28;98007;-50
2022/09/26 07:55:14;;;;;;;2.30;1.53;;;;;;;15.33;63.21;100044.78;4876023;28;97076;-50
2022/09/26 07:57:39;;;;;;;1.40;1.30;;;;;;;15.46;63.07;100051.06;4867245;28;97366;-50
2022/09/26 08:00:08;;;;;;;2.13;1.20;;;;;;;15.56;62.90;100046.50;4874688;28;97113;-50
2022/09/26 08:02:34;;;;;;;4.43;1.97;;;;;;;15.66;62.90;100055.84;4858164;28;96982;-51
2022/09/26 08:05:03;;;;;;;2.23;2.03;;;;;;;15.74;62.25;100042.78;4870483;28;97053;-52
2022/09/26 08:07:30;;;;;;;2.50;1.23;;;;;;;15.81;62.58;100046.91;4868214;28;101811;-50
2022/09/26 08:09:57;;;;;;;2.97;1.53;;;;;;;15.91;62.60;100044.38;4852965;28;97157;-50
2022/09/26 08:12:23;;;;;;;4.97;1.67;;;;;;;15.97;62.34;100039.41;4868920;28;97113;-50
2022/09/26 08:14:49;;;;;;;3.33;1.93;;;;;;;16.07;62.05;100052.28;4865640;28;96927;-55
2022/09/26 08:17:20;;;;;;;2.33;2.13;;;;;;;16.10;61.33;100045.63;4871064;28;98540;-49
2022/09/26 08:19:46;;;;;;;1.97;1.80;;;;;;;16.09;61.79;100043.41;4873303;28;100152;-51
2022/09/26 08:22:11;;;;;;;1.60;1.50;;;;;;;16.10;61.68;100039.31;4864017;28;107469;-51
2022/09/26 08:24:37;;;;;;;3.73;1.43;;;;;;;16.06;61.78;100036.91;4869040;28;96822;-49
2022/09/26 08:27:03;;;;;;;1.87;1.47;;;;;;;16.11;61.79;100033.25;4867290;28;97358;-50
2022/09/26 08:29:33;;;;;;;1.60;1.50;;;;;;;16.13;61.53;100038.25;4852866;28;96907;-51
2022/09/26 08:32:03;;;;;;;1.53;1.43;;;;;;;16.17;61.69;100039.38;4871839;28;97726;-49
2022/09/26 08:34:29;;;;;;;2.03;1.53;;;;;;;16.25;61.55;100042.94;4854232;28;97200;-49
2022/09/26 08:36:54;;;;;;;2.87;2.10;;;;;;;16.29;61.31;100032.22;4861043;28;98555;-50
2022/09/26 08:39:20;;;;;;;3.27;1.73;;;;;;;16.34;61.18;100039.66;4859558;28;107875;-50
2022/09/26 08:41:46;;;;;;;2.40;2.07;;;;;;;16.42;61.07;100032.13;4854556;28;96846;-49
2022/09/26 08:44:35;;;;;;;2.40;1.60;;;;;;;16.45;60.20;100033.06;4864204;28;97188;-51
2022/09/26 08:47:16;;;;;;;2.77;1.60;;;;;;;16.45;59.46;100033.81;4853513;28;97998;-50
2022/09/26 08:49:54;;;;;;;1.83;1.73;;;;;;;16.43;58.32;100033.63;4869972;28;100148;-51
2022/09/26 08:52:40;;;;;;;1.83;1.73;;;;;;;16.42;59.23;100026.56;4865630;28;97442;-50
2022/09/26 08:55:19;;;;;;;3.27;1.73;;;;;;;16.43;59.14;100027.31;4859612;28;97377;-50
2022/09/26 08:57:47;;;;;;;1.20;1.20;;;;;;;16.45;60.25;100019.91;4869652;28;97488;-50
2022/09/26 09:00:23;;;;;;;1.97;1.53;;;;;;;16.49;59.70;100008.44;4856026;28;97140;-49
2022/09/26 09:03:01;;;;;;;1.30;1.20;;;;;;;16.54;59.96;100007.59;4868056;28;97570;-50
2022/09/26 09:05:31;;;;;;;3.70;1.77;;;;;;;16.53;59.74;99999.81;4851944;28;98672;-50
2022/09/26 09:07:59;;;;;;;1.90;1.70;;;;;;;16.57;59.95;100000.19;4860952;28;97968;-49
2022/09/26 09:10:40;;;;;;;1.33;1.27;;;;;;;16.60;59.31;100001.88;4852350;28;97149;-50
2022/09/26 09:13:33;;;;;;;2.23;1.53;;;;;;;16.62;59.80;100008.34;4868460;28;97155;-49
2022/09/26 09:16:16;;;;;;;5.43;2.00;;;;;;;16.61;58.92;100006.13;4871530;28;97910;-50
2022/09/26 09:19:32;;;;;;;6.30;1.70;;;;;;;16.63;58.44;100006.31;4854870;28;97543;-50
2022/09/26 09:22:35;;;;;;;4.47;1.23;;;;;;;16.65;58.06;100001.69;4865510;28;100190;-50
2022/09/26 09:25:03;;;;;;;1.60;1.50;;;;;;;16.72;59.34;99995.44;4851200;28;97552;-49
2022/09/26 09:27:50;;;;;;;3.37;1.30;;;;;;;16.83;57.86;99989.53;4869127;28;97109;-50
2022/09/26 09:30:20;;;;;;;1.40;1.30;;;;;;;16.90;58.84;100004.75;4872848;28;102122;-50
2022/09/26 09:33:19;;;;;;;2.30;1.60;;;;;;;16.95;57.36;99996.22;4868689;28;101868;-50
2022/09/26 09:35:47;;;;;;;1.23;1.13;;;;;;;17.00;58.80;99987.00;4866235;28;96829;-49
2022/09/26 09:38:19;;;;;;;1.80;1.60;;;;;;;17.05;58.29;99985.34;4859069;28;96882;-49
2022/09/26 09:40:56;;;;;;;1.77;1.67;;;;;;;17.05;58.02;99977.00;4875431;28;96894;-50
2022/09/26 09:43:31;;;;;;;2.90;1.67;;;;;;;17.05;57.86;99977.00;4856758;28;97093;-50
2022/09/26 09:46:02;;;;;;;1.70;1.47;;;;;;;17.09;58.15;99980.16;4865307;28;97387;-50
2022/09/26 09:48:27;;;;;;;3.13;1.90;;;;;;;17.13;58.17;99969.41;4857761;28;97498;-50
2022/09/26 09:51:14;;;;;;;1.30;1.20;;;;;;;17.19;56.68;99972.75;4864858;28;97182;-51
2022/09/26 09:53:40;;;;;;;2.10;1.07;;;;;;;17.29;58.09;99970.91;4855672;28;101375;-48
2022/09/26 09:56:27;;;;;;;3.13;1.57;;;;;;;17.31;56.46;99965.53;4870488;28;97237;-48
2022/09/26 09:59:21;;;;;;;2.70;1.53;;;;;;;17.32;57.89;99958.66;4853907;28;96598;-49
2022/09/26 10:01:58;;;;;;;3.63;1.20;;;;;;;17.33;57.49;99956.63;4867376;28;101812;-49
2022/09/26 10:04:49;;;;;;;2.87;1.10;;;;;;;17.34;56.31;99958.88;4868506;28;97358;-50
2022/09/26 10:07:15;;;;;;;2.33;1.50;;;;;;;17.35;57.58;99951.25;4870563;28;98276;-50
2022/09/26 10:09:42;;;;;;;4.37;1.40;;;;;;;17.37;57.60;99948.66;4863848;28;97408;-50
2022/09/26 10:12:15;;;;;;;1.37;0.97;;;;;;;17.40;57.64;99958.69;4858741;28;97484;-50
2022/09/26 10:14:51;;;;;;;2.10;1.63;;;;;;;17.40;56.50;99951.06;4867993;28;97772;-51
2022/09/26 10:17:19;;;;;;;6.10;1.70;;;;;;;17.36;57.54;99947.94;4858372;28;97377;-51
2022/09/26 10:19:45;;;;;;;1.67;1.57;;;;;;;17.37;57.51;99949.41;4869439;28;97145;-51
2022/09/26 10:22:23;;;;;;;1.60;1.50;;;;;;;17.36;57.21;99953.50;4874346;28;96755;-51
2022/09/26 10:24:52;;;;;;;2.20;1.33;;;;;;;17.28;57.38;99941.59;4866930;28;101582;-55
2022/09/26 10:27:35;;;;;;;2.00;1.40;;;;;;;17.23;57.27;99943.28;4870739;28;97283;-50
2022/09/26 10:30:03;;;;;;;2.50;1.37;;;;;;;17.17;57.40;99941.97;4872943;28;96937;-51
2022/09/26 10:32:29;;;;;;;2.17;1.43;;;;;;;17.16;57.57;99934.94;4868415;28;97317;-52
2022/09/26 10:35:18;;;;;;;1.67;1.50;;;;;;;17.13;56.44;99938.81;4855609;28;96643;-50
2022/09/26 10:37:49;;;;;;;1.70;1.20;;;;;;;17.15;57.39;99934.19;4852347;28;97728;-51
2022/09/26 10:43:23;;;;;;;2.60;1.17;;;;;;;17.11;56.58;99939.41;4857392;28;96785;-50
2022/09/26 10:45:54;;;;;;;1.70;1.03;;;;;;;17.11;57.56;99941.44;4877279;28;101632;-50
2022/09/26 10:48:25;;;;;;;2.60;1.67;;;;;;;17.12;57.51;99934.59;4864673;28;97200;-50
2022/09/26 10:50:59;;;;;;;2.47;1.20;;;;;;;17.11;57.38;99931.06;4870301;28;97279;-50
2022/09/26 10:53:31;;;;;;;2.20;1.53;;;;;;;17.11;57.38;99938.66;4854088;28;98726;-50
2022/09/26 10:56:04;;;;;;;2.23;1.03;;;;;;;17.16;57.27;99934.94;4863693;28;97458;-50
2022/09/26 10:58:31;;;;;;;2.53;0.93;;;;;;;17.22;57.52;99924.38;4858331;28;97211;-50
2022/09/26 11:00:59;;;;;;;2.10;0.97;;;;;;;17.28;57.40;99918.66;4874293;28;97293;-51
2022/09/26 11:03:45;;;;;;;2.60;1.00;;;;;;;17.32;56.59;99913.44;4862887;28;97316;-51
2022/09/26 11:06:44;;;;;;;4.37;1.37;;;;;;;17.34;56.73;99922.72;4871878;28;97411;-50
2022/09/26 11:09:12;;;;;;;0.70;0.70;;;;;;;17.38;57.21;99911.97;4877028;28;98192;-51
2022/09/26 11:11:38;;;;;;;0.97;0.97;;;;;;;17.42;57.17;99895.66;4860320;28;97334;-51
2022/09/26 11:14:07;;;;;;;1.00;0.90;;;;;;;17.50;57.32;99899.19;4865400;28;101727;-50
2022/09/26 11:16:53;;;;;;;1.43;1.10;;;;;;;17.58;56.02;99891.56;4870232;28;97294;-50
2022/09/26 11:19:41;;;;;;;3.03;1.47;;;;;;;17.66;56.95;99895.09;4879424;28;97347;-54
2022/09/26 11:22:28;;;;;;;4.67;1.13;;;;;;;17.77;56.78;99882.81;4855039;28;98029;-51
2022/09/26 11:24:58;;;;;;;1.47;1.20;;;;;;;17.82;57.32;99877.03;4869182;28;101811;-50
2022/09/26 11:27:30;;;;;;;3.67;1.17;;;;;;;17.83;56.57;99875.00;4850183;28;97346;-50
2022/09/26 11:30:19;;;;;;;0.93;0.90;;;;;;;17.80;56.32;99871.28;4867964;28;96668;-50
2022/09/26 11:32:54;;;;;;;1.17;1.07;;;;;;;17.79;56.80;99867.03;4869894;28;97314;-51
2022/09/26 11:35:32;;;;;;;1.40;1.20;;;;;;;17.77;56.04;99866.13;4855579;28;97755;-50
2022/09/26 11:38:12;;;;;;;0.67;0.63;;;;;;;17.71;56.66;99863.53;4869453;28;97296;-51
2022/09/26 11:40:59;;;;;;;2.00;1.00;;;;;;;17.63;56.71;99862.06;4854756;28;97297;-50
2022/09/26 11:43:43;;;;;;;1.90;0.77;;;;;;;17.66;57.01;99860.94;4865317;28;99015;-51
2022/09/26 11:46:47;;;;;;;2.50;1.03;;;;;;;17.63;57.37;99859.28;4864458;28;102304;-50
2022/09/26 11:49:36;;;;;;;4.13;1.20;;;;;;;17.54;56.90;99849.47;4901971;28;101737;-50
2022/09/26 11:52:25;;;;;;;3.87;1.27;;;;;;;17.50;57.01;99853.91;4893720;28;97081;-50
2022/09/26 11:55:00;;;;;;;1.67;1.13;;;;;;;17.48;57.58;99843.34;4869091;28;97066;-51
2022/09/26 11:57:44;;;;;;;1.90;1.20;;;;;;;17.46;57.50;99845.22;4868667;28;103236;-50
2022/09/26 12:00:28;;;;;;;1.40;0.97;;;;;;;17.41;56.79;99840.59;4854277;28;97158;-49